createdAt,value
2023-01-01T00:04:50.506Z,10.15
2023-01-01T00:07:19.965Z,8.45
2023-01-01T00:10:06.514Z,6.95
2023-01-01T00:12:35.157Z,6.07
2023-01-01T00:15:03.025Z,4.72
2023-01-01T00:17:30.852Z,5.10
2023-01-01T00:19:58.524Z,4.97
2023-01-01T00:25:19.798Z,4.20
2023-01-01T00:27:48.631Z,3.70
2023-01-01T00:30:16.130Z,3.30
2023-01-01T00:32:54.721Z,3.50
2023-01-01T00:35:27.351Z,3.72
2023-01-01T00:37:57.364Z,3.30
2023-01-01T00:40:24.973Z,3.20
2023-01-01T00:42:52.904Z,3.50
2023-01-01T00:45:22.741Z,3.15
2023-01-01T00:47:55.691Z,3.55
2023-01-01T00:50:23.371Z,3.17
2023-01-01T00:52:51.568Z,2.88
2023-01-01T00:55:19.424Z,3.28
2023-01-01T00:57:46.880Z,3.58
2023-01-01T01:03:38.419Z,2.88
2023-01-01T01:06:05.995Z,3.30
2023-01-01T01:08:35.404Z,3.70
2023-01-01T01:11:23.197Z,3.50
2023-01-01T01:13:53.043Z,4.00
2023-01-01T01:16:24.691Z,3.28
2023-01-01T01:18:56.261Z,3.50
2023-01-01T01:21:24.580Z,3.25
2023-01-01T01:23:52.947Z,2.92
2023-01-01T01:26:24.639Z,3.10
2023-01-01T01:28:52.778Z,3.47
2023-01-01T01:31:21.456Z,2.50
2023-01-01T01:33:50.459Z,2.72
2023-01-01T01:36:19.982Z,3.67
2023-01-01T01:38:48.599Z,3.27
2023-01-01T01:41:27.803Z,2.33
2023-01-01T01:44:01.309Z,2.78
2023-01-01T01:46:43.814Z,2.80
2023-01-01T01:49:15.886Z,3.00
2023-01-01T01:51:43.637Z,2.42
2023-01-01T01:54:18.281Z,3.00
2023-01-01T01:56:56.611Z,2.88
2023-01-01T01:59:25.951Z,2.72
2023-01-01T02:01:54.074Z,2.78
2023-01-01T02:04:21.798Z,2.90
2023-01-01T02:06:50.106Z,2.70
2023-01-01T02:09:19.357Z,2.58
2023-01-01T02:11:47.132Z,2.75
2023-01-01T02:14:15.533Z,2.30
2023-01-01T02:16:49.969Z,2.70
2023-01-01T02:19:18.213Z,2.90
2023-01-01T02:21:55.825Z,2.35
2023-01-01T02:24:23.562Z,2.40
2023-01-01T02:27:06.485Z,2.55
2023-01-01T02:29:53.851Z,2.90
2023-01-01T02:32:21.525Z,2.17
2023-01-01T02:34:54.177Z,2.40
2023-01-01T02:37:22.903Z,2.60
2023-01-01T02:39:55.734Z,2.72
2023-01-01T02:42:26.168Z,2.53
2023-01-01T02:47:21.999Z,2.33
2023-01-01T02:50:10.585Z,2.13
2023-01-01T02:52:37.917Z,2.88
2023-01-01T02:55:14.769Z,1.92
2023-01-01T02:57:44.013Z,2.35
2023-01-01T03:00:27.703Z,2.22
2023-01-01T03:03:04.545Z,2.25
2023-01-01T03:05:35.418Z,3.05
2023-01-01T03:08:09.277Z,3.33
2023-01-01T03:10:42.934Z,2.40
2023-01-01T03:13:16.007Z,2.28
2023-01-01T03:15:52.776Z,2.38
2023-01-01T03:18:40.360Z,2.28
2023-01-01T03:23:42.149Z,1.80
2023-01-01T03:26:14.799Z,2.55
2023-01-01T03:28:49.014Z,2.47
2023-01-01T03:31:19.578Z,2.08
2023-01-01T03:33:49.595Z,2.50
2023-01-01T03:36:20.535Z,2.50
2023-01-01T03:38:52.717Z,2.28
2023-01-01T03:41:23.687Z,2.00
2023-01-01T03:43:55.064Z,1.98
2023-01-01T03:46:25.010Z,2.10
2023-01-01T03:49:02.596Z,2.17
2023-01-01T03:51:49.678Z,1.85
2023-01-01T03:54:23.168Z,2.00
2023-01-01T03:56:57.084Z,2.10
2023-01-01T03:59:44.950Z,2.00
2023-01-01T04:02:15.462Z,2.38
2023-01-01T04:04:44.271Z,2.05
2023-01-01T04:07:15.816Z,1.75
2023-01-01T04:09:46.697Z,2.25
2023-01-01T04:12:14.125Z,1.77
2023-01-01T04:14:42.496Z,2.10
2023-01-01T04:17:11.843Z,1.83
2023-01-01T04:19:39.985Z,1.63
2023-01-01T04:22:07.580Z,2.78
2023-01-01T04:24:35.774Z,2.30
2023-01-01T04:27:03.312Z,2.05
2023-01-01T04:29:31.151Z,2.25
2023-01-01T04:31:59.054Z,1.90
2023-01-01T04:34:26.847Z,2.33
2023-01-01T04:36:54.649Z,1.70
2023-01-01T04:39:22.935Z,2.08
2023-01-01T04:41:53.670Z,1.77
2023-01-01T04:44:21.476Z,1.80
2023-01-01T04:46:59.898Z,2.08
2023-01-01T04:49:27.882Z,1.80
2023-01-01T04:51:55.722Z,1.77
2023-01-01T04:54:24.267Z,2.20
2023-01-01T04:56:52.067Z,2.50
2023-01-01T04:59:20.781Z,2.08
2023-01-01T05:01:49.639Z,1.90
2023-01-01T05:04:18.135Z,1.90
2023-01-01T05:06:45.682Z,2.05
2023-01-01T05:09:13.220Z,2.13
2023-01-01T05:11:41.092Z,1.90
2023-01-01T05:14:09.138Z,2.10
2023-01-01T05:16:38.752Z,2.20
2023-01-01T05:19:06.976Z,2.70
2023-01-01T05:21:36.992Z,2.00
2023-01-01T05:24:06.271Z,2.53
2023-01-01T05:26:35.659Z,2.50
2023-01-01T05:29:03.573Z,1.90
2023-01-01T05:31:32.885Z,2.38
2023-01-01T05:36:31.885Z,2.60
2023-01-01T05:38:59.673Z,1.63
2023-01-01T05:41:27.935Z,1.77
2023-01-01T05:43:55.805Z,1.90
2023-01-01T05:46:24.829Z,2.25
2023-01-01T05:48:54.076Z,1.90
2023-01-01T05:51:22.855Z,2.28
2023-01-01T05:53:51.543Z,2.13
2023-01-01T05:56:19.841Z,2.83
2023-01-01T05:58:51.834Z,2.30
2023-01-01T06:01:24.892Z,2.15
2023-01-01T06:03:56.163Z,1.88
2023-01-01T06:06:25.908Z,3.33
2023-01-01T06:08:57.448Z,2.30
2023-01-01T06:11:24.980Z,2.17
2023-01-01T06:13:53.504Z,2.15
2023-01-01T06:16:20.967Z,2.17
2023-01-01T06:18:50.994Z,2.30
2023-01-01T06:21:24.456Z,2.22
2023-01-01T06:23:52.123Z,2.38
2023-01-01T06:26:22.642Z,2.45
2023-01-01T06:28:51.362Z,3.22
2023-01-01T06:31:21.134Z,2.53
2023-01-01T06:33:51.010Z,1.65
2023-01-01T06:36:21.534Z,1.65
2023-01-01T06:41:21.361Z,1.90
2023-01-01T06:43:49.689Z,1.65
2023-01-01T06:46:21.031Z,1.83
2023-01-01T06:48:50.092Z,1.80
2023-01-01T06:51:23.166Z,1.27
2023-01-01T06:53:51.715Z,1.25
2023-01-01T06:56:24.849Z,1.48
2023-01-01T06:58:52.600Z,1.60
2023-01-01T07:01:22.972Z,2.00
2023-01-01T07:03:51.722Z,2.15
2023-01-01T07:06:19.898Z,1.90
2023-01-01T07:08:50.475Z,1.48
2023-01-01T07:13:46.682Z,1.73
2023-01-01T07:16:14.826Z,1.55
2023-01-01T07:18:42.470Z,1.52
2023-01-01T07:21:29.533Z,1.30
2023-01-01T07:23:58.422Z,1.40
2023-01-01T07:26:26.754Z,1.08
2023-01-01T07:28:55.756Z,1.58
2023-01-01T07:31:29.155Z,1.33
2023-01-01T07:33:56.713Z,1.42
2023-01-01T07:36:24.545Z,1.33
2023-01-01T07:38:52.075Z,1.55
2023-01-01T07:41:20.207Z,1.50
2023-01-01T07:43:48.313Z,1.30
2023-01-01T07:46:20.935Z,1.40
2023-01-01T07:48:49.313Z,1.33
2023-01-01T07:51:16.926Z,1.88
2023-01-01T07:53:47.901Z,1.27
2023-01-01T07:56:15.616Z,1.73
2023-01-01T07:58:43.172Z,1.60
2023-01-01T08:01:12.603Z,1.60
2023-01-01T08:03:40.539Z,1.35
2023-01-01T08:06:12.287Z,1.40
2023-01-01T08:08:40.030Z,1.70
2023-01-01T08:11:08.232Z,1.73
2023-01-01T08:13:36.136Z,1.75
2023-01-01T08:16:03.789Z,1.95
2023-01-01T08:18:32.598Z,2.15
2023-01-01T08:21:05.623Z,1.73
2023-01-01T08:23:33.702Z,1.80
2023-01-01T08:26:05.310Z,2.03
2023-01-01T08:28:33.560Z,1.98
2023-01-01T08:31:01.340Z,2.17
2023-01-01T08:33:32.605Z,1.70
2023-01-01T08:36:00.939Z,1.80
2023-01-01T08:38:28.784Z,2.35
2023-01-01T08:40:56.175Z,1.40
2023-01-01T08:43:25.536Z,1.52
2023-01-01T08:45:53.369Z,2.10
2023-01-01T08:48:25.624Z,1.98
2023-01-01T08:50:57.523Z,1.50
2023-01-01T08:53:30.935Z,2.25
2023-01-01T08:55:59.364Z,1.42
2023-01-01T08:58:26.966Z,1.20
2023-01-01T09:00:56.582Z,1.80
2023-01-01T09:03:24.378Z,1.30
2023-01-01T09:05:52.464Z,1.80
2023-01-01T09:08:20.859Z,1.65
2023-01-01T09:10:49.723Z,2.25
2023-01-01T09:13:19.292Z,1.42
2023-01-01T09:15:47.084Z,2.60
2023-01-01T09:18:17.042Z,1.60
2023-01-01T09:20:45.442Z,1.70
2023-01-01T09:23:14.032Z,2.22
2023-01-01T09:25:42.545Z,1.90
2023-01-01T09:28:12.695Z,2.78
2023-01-01T09:30:43.356Z,2.10
2023-01-01T09:33:14.659Z,2.17
2023-01-01T09:35:44.700Z,2.10
2023-01-01T09:38:12.437Z,2.50
2023-01-01T09:40:40.025Z,2.33
2023-01-01T09:43:21.440Z,2.33
2023-01-01T09:46:13.388Z,2.22
2023-01-01T09:48:45.723Z,2.35
2023-01-01T09:51:20.531Z,2.50
2023-01-01T09:53:51.367Z,2.45
2023-01-01T09:56:22.026Z,2.28
2023-01-01T10:01:32.861Z,2.10
2023-01-01T10:04:06.618Z,2.92
2023-01-01T10:06:35.838Z,2.40
2023-01-01T10:09:22.171Z,2.97
2023-01-01T10:11:53.943Z,2.85
2023-01-01T10:14:35.362Z,2.53
2023-01-01T10:17:05.946Z,2.15
2023-01-01T10:19:37.277Z,2.40
2023-01-01T10:22:08.036Z,2.08
2023-01-01T10:24:51.108Z,2.30
2023-01-01T10:27:43.090Z,2.85
2023-01-01T10:30:21.122Z,2.53
2023-01-01T10:32:50.237Z,2.20
2023-01-01T10:35:49.840Z,2.45
2023-01-01T10:38:25.500Z,2.80
2023-01-01T10:40:54.342Z,2.85
2023-01-01T10:43:21.971Z,2.70
2023-01-01T10:45:54.187Z,3.20
2023-01-01T10:48:21.978Z,3.40
2023-01-01T10:50:51.440Z,3.05
2023-01-01T10:53:32.913Z,2.88
2023-01-01T10:56:07.086Z,3.95
2023-01-01T10:58:58.659Z,3.95
2023-01-01T11:01:28.500Z,4.55
2023-01-01T11:04:15.089Z,3.45
2023-01-01T11:06:43.666Z,3.72
2023-01-01T11:09:20.851Z,4.18
2023-01-01T11:11:50.747Z,3.97
2023-01-01T11:14:37.388Z,4.70
2023-01-01T11:17:07.284Z,3.78
2023-01-01T11:19:39.125Z,4.57
2023-01-01T11:22:07.135Z,3.85
2023-01-01T11:24:35.327Z,4.70
2023-01-01T11:27:24.181Z,4.25
2023-01-01T11:29:54.749Z,4.18
2023-01-01T11:34:57.614Z,3.90
2023-01-01T11:37:29.562Z,4.10
2023-01-01T11:39:58.142Z,4.88
2023-01-01T11:42:29.592Z,4.18
2023-01-01T11:44:58.789Z,4.50
2023-01-01T11:47:40.066Z,3.92
2023-01-01T11:50:18.563Z,4.13
2023-01-01T11:52:49.137Z,3.95
2023-01-01T11:55:27.391Z,4.30
2023-01-01T11:58:01.141Z,3.97
2023-01-01T12:00:32.329Z,4.10
2023-01-01T12:03:20.053Z,4.60
2023-01-01T12:05:55.031Z,4.00
2023-01-01T12:08:26.906Z,4.05
2023-01-01T12:10:57.951Z,3.65
2023-01-01T12:13:28.070Z,3.42
2023-01-01T12:15:55.796Z,3.95
2023-01-01T12:18:34.971Z,3.70
2023-01-01T12:21:25.887Z,3.55
2023-01-01T12:23:53.701Z,3.40
2023-01-01T12:26:21.326Z,3.95
2023-01-01T12:28:49.423Z,3.25
2023-01-01T12:31:30.527Z,3.50
2023-01-01T12:34:19.833Z,3.75
2023-01-01T12:36:48.326Z,3.45
2023-01-01T12:39:39.748Z,3.15
2023-01-01T12:42:26.651Z,3.88
2023-01-01T12:45:18.675Z,3.13
2023-01-01T12:48:00.146Z,3.25
2023-01-01T12:50:35.388Z,2.38
2023-01-01T12:53:10.239Z,2.88
2023-01-01T12:55:37.722Z,2.88
2023-01-01T12:58:09.410Z,2.65
2023-01-01T13:00:39.701Z,2.85
2023-01-01T13:03:14.970Z,2.75
2023-01-01T13:05:43.521Z,3.38
2023-01-01T13:08:11.388Z,2.80
2023-01-01T13:10:40.797Z,2.47
2023-01-01T13:13:09.767Z,2.28
2023-01-01T13:15:41.562Z,2.92
2023-01-01T13:18:15.243Z,3.08
2023-01-01T13:20:45.680Z,2.60
2023-01-01T13:23:33.432Z,2.92
2023-01-01T13:26:23.200Z,2.50
2023-01-01T13:28:57.382Z,2.67
2023-01-01T13:31:40.673Z,2.45
2023-01-01T13:34:27.403Z,2.47
2023-01-01T13:37:21.197Z,2.85
2023-01-01T13:39:59.606Z,2.40
2023-01-01T13:42:42.406Z,2.55
2023-01-01T13:46:10.068Z,2.13
2023-01-01T13:48:19.726Z,3.00
2023-01-01T13:51:00.100Z,3.67
2023-01-01T13:53:43.157Z,2.67
2023-01-01T13:56:22.232Z,3.17
2023-01-01T13:58:50.262Z,2.30
2023-01-01T14:01:36.600Z,2.60
2023-01-01T14:04:06.847Z,2.60
2023-01-01T14:06:46.495Z,3.15
2023-01-01T14:09:21.940Z,2.80
2023-01-01T14:11:51.729Z,3.60
2023-01-01T14:14:24.663Z,2.50
2023-01-01T14:16:53.608Z,3.15
2023-01-01T14:19:23.546Z,2.58
2023-01-01T14:21:51.924Z,2.97
2023-01-01T14:24:24.235Z,3.47
2023-01-01T14:26:52.407Z,2.40
2023-01-01T14:29:41.262Z,3.22
2023-01-01T14:32:22.853Z,2.83
2023-01-01T14:35:01.826Z,3.17
2023-01-01T14:37:29.651Z,2.05
2023-01-01T14:40:08.609Z,2.47
2023-01-01T14:42:37.891Z,2.78
2023-01-01T14:45:05.734Z,2.55
2023-01-01T14:47:37.047Z,2.45
2023-01-01T14:50:10.748Z,3.00
2023-01-01T14:52:38.760Z,2.65
2023-01-01T14:55:07.154Z,2.15
2023-01-01T14:57:36.577Z,2.70
2023-01-01T15:00:14.870Z,3.00
2023-01-01T15:02:42.532Z,2.40
2023-01-01T15:05:34.733Z,2.15
2023-01-01T15:08:06.484Z,3.10
2023-01-01T15:10:38.429Z,2.53
2023-01-01T15:13:07.106Z,2.58
2023-01-01T15:15:45.226Z,2.72
2023-01-01T15:18:32.500Z,2.75
2023-01-01T15:21:00.505Z,3.13
2023-01-01T15:23:28.236Z,2.75
2023-01-01T15:25:56.924Z,2.78
2023-01-01T15:28:24.584Z,3.30
2023-01-01T15:30:53.200Z,2.47
2023-01-01T15:33:21.641Z,2.45
2023-01-01T15:36:01.018Z,2.38
2023-01-01T15:38:34.458Z,2.70
2023-01-01T15:41:23.028Z,2.33
2023-01-01T15:43:51.001Z,4.30
2023-01-01T15:46:22.661Z,4.53
2023-01-01T15:48:52.817Z,3.42
2023-01-01T15:51:24.700Z,3.30
2023-01-01T15:53:52.511Z,3.30
2023-01-01T15:56:26.118Z,3.60
2023-01-01T15:59:15.855Z,3.70
2023-01-01T16:01:43.906Z,3.78
2023-01-01T16:04:14.823Z,3.67
2023-01-01T16:06:58.633Z,3.85
2023-01-01T16:09:27.308Z,3.83
2023-01-01T16:11:57.287Z,4.00
2023-01-01T16:14:24.842Z,4.18
2023-01-01T16:16:57.358Z,3.55
2023-01-01T16:19:25.434Z,3.40
2023-01-01T16:21:52.964Z,3.75
2023-01-01T16:24:23.947Z,4.18
2023-01-01T16:26:51.540Z,3.65
2023-01-01T16:29:19.608Z,3.17
2023-01-01T16:31:50.522Z,3.38
2023-01-01T16:34:20.177Z,3.38
2023-01-01T16:36:50.446Z,3.30
2023-01-01T16:39:19.402Z,3.38
2023-01-01T16:41:50.373Z,3.17
2023-01-01T16:44:18.256Z,3.38
2023-01-01T16:46:46.076Z,3.47
2023-01-01T16:49:13.710Z,3.55
2023-01-01T16:51:44.047Z,3.85
2023-01-01T16:54:12.708Z,3.30
2023-01-01T16:56:40.447Z,3.17
2023-01-01T16:59:08.098Z,3.55
2023-01-01T17:01:35.999Z,4.18
2023-01-01T17:04:03.627Z,3.95
2023-01-01T17:06:32.105Z,3.30
2023-01-01T17:09:03.253Z,3.97
2023-01-01T17:11:31.248Z,3.20
2023-01-01T17:13:59.962Z,3.60
2023-01-01T17:16:38.361Z,2.95
2023-01-01T17:19:16.141Z,3.42
2023-01-01T17:21:47.937Z,3.53
2023-01-01T17:24:17.827Z,3.78
2023-01-01T17:26:45.864Z,3.90
2023-01-01T17:29:13.819Z,4.22
2023-01-01T17:31:42.200Z,4.13
2023-01-01T17:34:14.235Z,3.55
2023-01-01T17:36:42.837Z,4.20
2023-01-01T17:39:14.284Z,4.63
2023-01-01T17:41:42.800Z,4.45
2023-01-01T17:44:11.409Z,4.97
2023-01-01T17:46:40.512Z,5.00
2023-01-01T17:49:10.621Z,4.18
2023-01-01T17:51:39.678Z,4.80
2023-01-01T17:54:13.320Z,4.40
2023-01-01T17:56:41.173Z,4.75
2023-01-01T17:59:09.493Z,4.00
2023-01-01T18:01:37.283Z,4.65
2023-01-01T18:04:06.491Z,4.40
2023-01-01T18:06:38.834Z,5.22
2023-01-01T18:09:11.850Z,4.07
2023-01-01T18:11:39.602Z,4.15
2023-01-01T18:14:07.273Z,5.03
2023-01-01T18:16:36.118Z,4.35
2023-01-01T18:19:05.615Z,4.10
2023-01-01T18:21:34.065Z,4.03
2023-01-01T18:24:01.914Z,4.50
2023-01-01T18:26:30.330Z,4.57
2023-01-01T18:28:59.319Z,4.63
2023-01-01T18:31:28.263Z,4.47
2023-01-01T18:33:56.079Z,3.70
2023-01-01T18:36:25.774Z,4.57
2023-01-01T18:38:59.519Z,4.17
2023-01-01T18:41:46.008Z,4.15
2023-01-01T18:44:17.031Z,4.13
2023-01-01T18:46:46.449Z,4.28
2023-01-01T18:49:15.518Z,3.75
2023-01-01T18:51:43.832Z,3.97
2023-01-01T18:54:14.036Z,3.70
2023-01-01T18:56:41.558Z,4.35
2023-01-01T18:59:20.621Z,3.22
2023-01-01T19:01:49.632Z,4.13
2023-01-01T19:04:19.716Z,6.70
2023-01-01T19:06:48.304Z,6.65
2023-01-01T19:09:20.839Z,6.82
2023-01-01T19:11:49.981Z,6.75
2023-01-01T19:14:22.949Z,4.80
2023-01-01T19:16:51.863Z,4.32
2023-01-01T19:19:23.910Z,4.20
2023-01-01T19:21:53.270Z,3.38
2023-01-01T19:24:32.399Z,3.70
2023-01-01T19:27:10.940Z,4.25
2023-01-01T19:29:41.123Z,3.70
2023-01-01T19:32:09.255Z,3.55
2023-01-01T19:34:37.060Z,4.32
2023-01-01T19:37:05.478Z,4.25
2023-01-01T19:39:38.088Z,3.78
2023-01-01T19:42:07.194Z,4.22
2023-01-01T19:44:36.160Z,4.50
2023-01-01T19:47:05.096Z,3.72
2023-01-01T19:49:33.177Z,3.70
2023-01-01T19:52:01.179Z,4.13
2023-01-01T19:54:28.879Z,3.78
2023-01-01T19:56:57.288Z,4.65
2023-01-01T19:59:33.060Z,4.20
2023-01-01T20:04:50.482Z,3.65
2023-01-01T20:07:19.331Z,3.75
2023-01-01T20:09:46.845Z,4.28
2023-01-01T20:12:14.330Z,3.88
2023-01-01T20:14:42.320Z,4.88
2023-01-01T20:17:10.384Z,4.78
2023-01-01T20:19:39.110Z,4.05
2023-01-01T20:22:14.115Z,4.00
2023-01-01T20:24:42.555Z,4.97
2023-01-01T20:27:10.463Z,4.30
2023-01-01T20:29:44.197Z,4.60
2023-01-01T20:32:20.289Z,4.40
2023-01-01T20:34:53.392Z,4.88
2023-01-01T20:37:39.613Z,4.70
2023-01-01T20:40:09.110Z,4.40
2023-01-01T20:42:37.168Z,5.00
2023-01-01T20:45:05.540Z,5.30
2023-01-01T20:47:33.975Z,4.50
2023-01-01T20:50:06.838Z,5.03
2023-01-01T20:52:34.863Z,5.18
2023-01-01T20:55:02.537Z,5.53
2023-01-01T20:57:30.511Z,5.28
2023-01-01T21:00:01.677Z,6.28
2023-01-01T21:02:30.491Z,5.55
2023-01-01T21:04:58.197Z,5.15
2023-01-01T21:07:27.368Z,5.50
2023-01-01T21:09:54.994Z,5.95
2023-01-01T21:12:24.944Z,5.18
2023-01-01T21:14:55.737Z,5.47
2023-01-01T21:17:24.488Z,5.72
2023-01-01T21:19:53.363Z,5.90
2023-01-01T21:22:21.557Z,6.00
2023-01-01T21:24:54.300Z,6.35
2023-01-01T21:27:27.081Z,5.65
2023-01-01T21:29:58.419Z,6.15
2023-01-01T21:32:38.445Z,6.22
2023-01-01T21:35:31.681Z,5.80
2023-01-01T21:38:01.215Z,5.50
2023-01-01T21:40:28.737Z,6.40
2023-01-01T21:43:04.630Z,6.15
2023-01-01T21:45:33.624Z,5.88
2023-01-01T21:48:14.121Z,6.30
2023-01-01T21:53:20.604Z,6.20
2023-01-01T21:55:53.349Z,7.35
2023-01-01T21:58:54.467Z,6.38
2023-01-01T22:01:27.019Z,6.77
2023-01-01T22:03:59.510Z,6.50
2023-01-01T22:06:32.804Z,6.03
2023-01-01T22:09:02.585Z,7.43
2023-01-01T22:11:30.479Z,7.20
2023-01-01T22:13:59.185Z,7.28
2023-01-01T22:16:35.300Z,7.07
2023-01-01T22:19:12.868Z,7.13
2023-01-01T22:21:42.260Z,6.63
2023-01-01T22:24:30.058Z,7.43
2023-01-01T22:26:58.662Z,7.72
2023-01-01T22:29:27.097Z,7.65
2023-01-01T22:32:04.504Z,8.55
2023-01-01T22:34:32.625Z,8.40
2023-01-01T22:37:01.214Z,8.00
2023-01-01T22:39:36.669Z,8.32
2023-01-01T22:42:04.612Z,7.18
2023-01-01T22:44:35.864Z,7.70
2023-01-01T22:47:04.070Z,7.70
2023-01-01T22:49:31.763Z,8.30
2023-01-01T22:52:00.148Z,7.82
2023-01-01T22:54:27.740Z,7.70
2023-01-01T22:56:57.088Z,8.23
2023-01-01T22:59:24.763Z,9.07
2023-01-01T23:01:52.309Z,7.70
2023-01-01T23:04:21.137Z,8.02
2023-01-01T23:06:49.530Z,8.32
2023-01-01T23:09:19.822Z,9.05
2023-01-01T23:11:48.311Z,8.70
2023-01-01T23:14:39.047Z,8.32
2023-01-01T23:17:07.177Z,7.95
2023-01-01T23:19:35.303Z,7.78
2023-01-01T23:22:03.847Z,9.30
2023-01-01T23:24:35.692Z,9.23
2023-01-01T23:27:04.047Z,8.40
2023-01-01T23:29:33.438Z,8.52
2023-01-01T23:32:02.303Z,8.90
2023-01-01T23:34:30.419Z,8.45
2023-01-01T23:36:58.667Z,8.13
2023-01-01T23:39:26.232Z,8.15
2023-01-01T23:41:54.140Z,7.85
2023-01-01T23:44:22.217Z,7.78
2023-01-01T23:46:51.071Z,9.10
2023-01-01T23:49:19.759Z,8.32
2023-01-01T23:51:48.871Z,7.82
2023-01-01T23:54:16.576Z,8.55
2023-01-01T23:56:45.540Z,7.60
2023-01-01T23:59:13.612Z,8.80
